Time;durP1;ratioP1;P1;durP2;ratioP2;P2;SDS_P1;SDS_P2;PMS_P1;PMS_P2;Temp;Humidity;BMP_temperature;BMP_pressure;BME280_temperature;BME280_humidity;BME280_pressure;Samples;Min_cycle;Max_cycle;Signal;HPM_P1;HPM_P2
2022/05/31 00:01:11;;;;;;;;;;;;;;;21.11;40.61;99095.03;4477362;32;34563;-80
2022/05/31 00:03:38;;;;;;;;;;;;;;;21.29;40.34;99093.59;4481840;32;34104;-80
2022/05/31 00:06:06;;;;;;;;;;;;;;;21.51;39.73;99080.59;4467342;32;34216;-81
2022/05/31 00:08:33;;;;;;;;;;;;;;;21.51;39.85;99075.31;4452915;32;34306;-84
2022/05/31 00:11:00;;;;;;;;;;;;;;;21.24;40.01;99076.19;4473904;32;34361;-81
2022/05/31 00:13:27;;;;;;;;;;;;;;;21.10;40.30;99068.72;4482487;32;34168;-83
2022/05/31 00:15:54;;;;;;;;;;;;;;;21.45;39.71;99070.25;4483460;32;34363;-80
2022/05/31 00:18:22;;;;;;;;;;;;;;;21.46;39.66;99071.13;4484293;32;33770;-82
2022/05/31 00:20:49;;;;;;;;;;;;;;;21.71;38.79;99073.81;4478107;32;34720;-80
2022/05/31 00:23:16;;;;;;;;;;;;;;;21.44;39.53;99078.22;4474479;32;34155;-80
2022/05/31 00:25:43;;;;;;;;;;;;;;;21.22;40.04;99084.16;4470327;32;34231;-81
2022/05/31 00:28:10;;;;;;;;;;;;;;;21.06;40.50;99083.78;4484306;32;34280;-81
2022/05/31 00:30:37;;;;;;;;;;;;;;;20.92;40.88;99090.38;4482605;32;34764;-81
2022/05/31 00:33:05;;;;;;;;;;;;;;;21.17;40.12;99079.94;4484300;32;33721;-80
2022/05/31 00:35:33;;;;;;;;;;;;;;;21.27;39.47;99087.50;4483624;32;33615;-81
2022/05/31 00:38:00;;;;;;;;;;;;;;;21.11;39.99;99091.53;4470264;32;33678;-83
2022/05/31 00:40:29;;;;;;;;;;;;;;;21.10;39.93;99095.97;4457770;32;34100;-81
2022/05/31 00:42:57;;;;;;;;;;;;;;;21.05;40.17;99097.00;4454596;32;33950;-83
2022/05/31 00:45:45;;;;;;;;;;;;;;;21.14;39.72;99096.72;4456295;32;34527;-81
2022/05/31 00:48:13;;;;;;;;;;;;;;;21.20;39.49;99099.16;4479970;32;32132;-82
2022/05/31 00:50:51;;;;;;;;;;;;;;;21.24;39.24;99095.50;4456274;32;34235;-83
2022/05/31 00:53:20;;;;;;;;;;;;;;;21.39;39.17;99107.38;4454366;32;34570;-81
2022/05/31 00:55:50;;;;;;;;;;;;;;;21.26;39.38;99111.28;4468472;32;35225;-81
2022/05/31 00:58:25;;;;;;;;;;;;;;;21.30;39.19;99113.78;4454920;32;34160;-81
2022/05/31 01:00:52;;;;;;;;;;;;;;;21.08;39.68;99110.94;4468321;32;33746;-82
2022/05/31 01:03:20;;;;;;;;;;;;;;;21.23;39.51;99109.59;4484234;32;34070;-81
2022/05/31 01:05:48;;;;;;;;;;;;;;;21.17;39.48;99106.28;4470124;32;34130;-81
2022/05/31 01:08:15;;;;;;;;;;;;;;;21.21;39.32;99114.06;4484133;32;33369;-81
2022/05/31 01:10:43;;;;;;;;;;;;;;;21.25;39.13;99115.72;4470774;32;34001;-81
2022/05/31 01:13:12;;;;;;;;;;;;;;;21.03;39.60;99114.66;4468577;32;32423;-81
2022/05/31 01:15:46;;;;;;;;;;;;;;;21.17;39.33;99114.19;4454998;32;32697;-80
2022/05/31 01:18:24;;;;;;;;;;;;;;;21.03;39.46;99119.91;4468559;32;34339;-80
2022/05/31 01:20:55;;;;;;;;;;;;;;;21.08;39.43;99125.91;4482765;32;33681;-81
2022/05/31 01:23:25;;;;;;;;;;;;;;;20.96;39.62;99131.56;4484364;32;32853;-81
2022/05/31 01:26:12;;;;;;;;;;;;;;;21.03;39.42;99125.19;4463155;32;35499;-81
2022/05/31 01:28:43;;;;;;;;;;;;;;;21.00;39.50;99126.13;4453691;32;33775;-81
2022/05/31 01:31:21;;;;;;;;;;;;;;;21.02;39.46;99124.28;4468010;32;34330;-83
2022/05/31 01:33:49;;;;;;;;;;;;;;;21.03;39.33;99131.31;4473041;32;33846;-81
2022/05/31 01:36:19;;;;;;;;;;;;;;;21.01;39.35;99132.25;4468422;32;34516;-81
2022/05/31 01:38:48;;;;;;;;;;;;;;;20.95;39.39;99132.44;4469596;32;34460;-82
2022/05/31 01:41:16;;;;;;;;;;;;;;;20.98;39.69;99133.22;4469168;32;34010;-82
2022/05/31 01:43:44;;;;;;;;;;;;;;;20.87;39.98;99130.03;4481383;32;35229;-80
2022/05/31 01:46:12;;;;;;;;;;;;;;;20.59;40.66;99130.84;4469612;32;34239;-81
2022/05/31 01:48:40;;;;;;;;;;;;;;;20.84;40.29;99141.53;4469696;32;33664;-81
2022/05/31 01:51:07;;;;;;;;;;;;;;;20.95;39.63;99133.31;4469377;32;34949;-81
2022/05/31 01:53:34;;;;;;;;;;;;;;;20.78;40.13;99133.81;4482449;32;35904;-80
2022/05/31 01:56:01;;;;;;;;;;;;;;;20.78;40.36;99140.84;4483828;31;33945;-81
2022/05/31 01:58:31;;;;;;;;;;;;;;;20.87;40.09;99137.94;4456615;32;33961;-81
2022/05/31 02:00:59;;;;;;;;;;;;;;;20.74;40.13;99145.34;4459793;32;34867;-81
2022/05/31 02:03:26;;;;;;;;;;;;;;;20.94;39.79;99141.25;4480014;32;34908;-80
2022/05/31 02:05:53;;;;;;;;;;;;;;;20.89;39.97;99146.69;4475447;32;34112;-80
2022/05/31 02:08:21;;;;;;;;;;;;;;;20.81;40.17;99143.41;4483576;32;33925;-81
2022/05/31 02:10:49;;;;;;;;;;;;;;;20.91;39.81;99147.50;4483515;32;33768;-82
2022/05/31 02:13:16;;;;;;;;;;;;;;;20.95;39.59;99143.88;4470503;32;34602;-82
2022/05/31 02:15:44;;;;;;;;;;;;;;;20.94;39.38;99141.25;4468435;32;34876;-81
2022/05/31 02:18:16;;;;;;;;;;;;;;;20.88;39.60;99148.44;4477894;32;33370;-81
2022/05/31 02:20:44;;;;;;;;;;;;;;;20.85;39.90;99145.91;4480553;32;32649;-82
2022/05/31 02:23:11;;;;;;;;;;;;;;;20.83;39.79;99139.78;4480679;32;35149;-80
2022/05/31 02:25:38;;;;;;;;;;;;;;;20.78;39.70;99140.84;4476486;32;35203;-83
2022/05/31 02:28:06;;;;;;;;;;;;;;;21.01;39.27;99145.44;4480499;32;33232;-81
2022/05/31 02:30:33;;;;;;;;;;;;;;;20.91;39.20;99142.25;4469405;32;35060;-81
2022/05/31 02:33:00;;;;;;;;;;;;;;;20.10;40.97;99141.81;4483787;32;34398;-81
2022/05/31 02:35:27;;;;;;;;;;;;;;;20.60;40.49;99143.09;4469229;32;34312;-81
2022/05/31 02:37:55;;;;;;;;;;;;;;;20.62;40.55;99143.06;4467933;32;34255;-80
2022/05/31 02:40:22;;;;;;;;;;;;;;;20.73;40.34;99154.16;4469730;32;33760;-81
2022/05/31 02:42:50;;;;;;;;;;;;;;;20.72;40.02;99147.19;4483483;32;34696;-81
2022/05/31 02:45:17;;;;;;;;;;;;;;;20.81;39.88;99151.31;4483249;32;34184;-81
2022/05/31 02:47:45;;;;;;;;;;;;;;;20.60;40.46;99147.50;4483654;31;33873;-81
2022/05/31 02:50:12;;;;;;;;;;;;;;;20.56;40.93;99156.41;4469182;32;33954;-80
2022/05/31 02:52:39;;;;;;;;;;;;;;;20.58;40.80;99154.59;4483470;32;34551;-81
2022/05/31 02:55:07;;;;;;;;;;;;;;;20.65;40.64;99164.94;4473716;32;34166;-82
2022/05/31 02:57:40;;;;;;;;;;;;;;;20.54;41.01;99159.09;4483504;32;32114;-80
2022/05/31 03:00:10;;;;;;;;;;;;;;;20.71;40.28;99155.09;4483477;32;32637;-81
2022/05/31 03:02:39;;;;;;;;;;;;;;;20.77;39.72;99155.81;4483435;32;33504;-81
2022/05/31 03:05:14;;;;;;;;;;;;;;;20.79;39.56;99148.69;4472156;32;34082;-82
2022/05/31 03:07:44;;;;;;;;;;;;;;;20.78;39.63;99146.97;4483627;32;33106;-81
2022/05/31 03:10:12;;;;;;;;;;;;;;;20.84;39.44;99146.81;4482402;31;33982;-81
2022/05/31 03:12:39;;;;;;;;;;;;;;;20.79;39.90;99147.84;4477032;32;35003;-82
2022/05/31 03:15:07;;;;;;;;;;;;;;;20.70;40.06;99151.62;4482734;32;34907;-80
2022/05/31 03:17:38;;;;;;;;;;;;;;;20.45;41.21;99153.16;4477095;32;33606;-81
2022/05/31 03:20:06;;;;;;;;;;;;;;;20.52;41.59;99152.12;4453565;32;34896;-81
2022/05/31 03:22:37;;;;;;;;;;;;;;;20.61;41.71;99149.25;4476731;32;34506;-81
2022/05/31 03:25:07;;;;;;;;;;;;;;;20.74;41.76;99145.34;4479794;32;34215;-82
2022/05/31 03:27:34;;;;;;;;;;;;;;;20.93;41.43;99144.81;4464305;32;33509;-83
2022/05/31 03:30:02;;;;;;;;;;;;;;;20.98;41.16;99145.53;4453373;32;33653;-81
2022/05/31 03:32:31;;;;;;;;;;;;;;;20.81;41.78;99140.78;4453497;32;35207;-81
2022/05/31 03:34:58;;;;;;;;;;;;;;;20.76;42.18;99146.19;4453452;32;34377;-82
2022/05/31 03:37:26;;;;;;;;;;;;;;;21.08;41.60;99144.34;4470693;32;33450;-81
2022/05/31 03:39:54;;;;;;;;;;;;;;;21.09;41.52;99156.63;4482643;32;33931;-83
2022/05/31 03:42:21;;;;;;;;;;;;;;;21.20;41.31;99145.75;4467334;32;34529;-81
2022/05/31 03:44:51;;;;;;;;;;;;;;;21.45;40.89;99149.38;4467257;32;34380;-82
2022/05/31 03:47:19;;;;;;;;;;;;;;;21.78;40.42;99154.47;4455638;32;34103;-81
2022/05/31 03:49:47;;;;;;;;;;;;;;;22.19;39.74;99157.53;4480799;32;33839;-81
2022/05/31 03:52:15;;;;;;;;;;;;;;;22.34;39.43;99157.84;4453536;32;35259;-81
2022/05/31 03:54:42;;;;;;;;;;;;;;;22.31;38.94;99155.34;4466990;32;34353;-81
2022/05/31 03:57:20;;;;;;;;;;;;;;;22.55;38.64;99160.66;4468888;32;32862;-81
2022/05/31 03:59:48;;;;;;;;;;;;;;;22.79;38.23;99157.09;4469017;32;34738;-81
2022/05/31 04:02:16;;;;;;;;;;;;;;;23.01;37.98;99164.25;4482836;32;34486;-81
2022/05/31 04:04:43;;;;;;;;;;;;;;;23.31;37.56;99163.06;4482818;32;35322;-81
2022/05/31 04:07:10;;;;;;;;;;;;;;;23.48;37.61;99164.19;4481412;31;33115;-81
2022/05/31 04:09:38;;;;;;;;;;;;;;;23.72;37.22;99165.88;4466884;32;34195;-81
2022/05/31 04:12:06;;;;;;;;;;;;;;;23.98;36.76;99166.56;4469807;32;35291;-79
2022/05/31 04:14:36;;;;;;;;;;;;;;;24.25;36.05;99176.00;4467145;32;33234;-81
2022/05/31 04:17:03;;;;;;;;;;;;;;;24.36;36.38;99170.25;4467230;32;33520;-81
2022/05/31 04:19:31;;;;;;;;;;;;;;;24.47;36.37;99164.50;4482499;32;34355;-81
2022/05/31 04:21:58;;;;;;;;;;;;;;;24.88;35.36;99161.78;4481058;32;34461;-81
2022/05/31 04:24:26;;;;;;;;;;;;;;;24.72;35.90;99167.78;4482589;32;34987;-80
2022/05/31 04:26:55;;;;;;;;;;;;;;;25.38;34.72;99163.88;4468658;32;32365;-81
2022/05/31 04:29:28;;;;;;;;;;;;;;;25.48;35.38;99159.88;4472678;32;36240;-82
2022/05/31 04:31:59;;;;;;;;;;;;;;;25.55;35.16;99158.62;4476068;32;34787;-81
2022/05/31 04:34:27;;;;;;;;;;;;;;;25.75;35.10;99159.44;4466705;32;34037;-81
2022/05/31 04:36:54;;;;;;;;;;;;;;;26.43;33.76;99157.78;4466597;32;33140;-81
2022/05/31 04:39:23;;;;;;;;;;;;;;;26.38;33.58;99152.69;4479603;32;32536;-81
2022/05/31 04:41:51;;;;;;;;;;;;;;;26.30;34.39;99154.03;4470465;32;34322;-81
2022/05/31 04:44:19;;;;;;;;;;;;;;;25.29;35.44;99159.03;4468078;31;34325;-82
2022/05/31 04:46:48;;;;;;;;;;;;;;;26.02;34.78;99149.28;4475497;32;34474;-79
2022/05/31 04:49:18;;;;;;;;;;;;;;;26.41;33.05;99149.03;4473077;32;35834;-81
2022/05/31 04:51:46;;;;;;;;;;;;;;;25.38;34.55;99156.81;4475229;32;33954;-83
2022/05/31 04:54:18;;;;;;;;;;;;;;;26.42;32.70;99158.72;4464975;32;35266;-81
2022/05/31 04:56:46;;;;;;;;;;;;;;;26.61;32.28;99151.53;4469865;32;34266;-84
2022/05/31 04:59:13;;;;;;;;;;;;;;;26.91;31.33;99148.16;4469481;32;33605;-79
2022/05/31 05:01:41;;;;;;;;;;;;;;;25.65;32.83;99151.97;4476608;32;33853;-80
2022/05/31 05:04:09;;;;;;;;;;;;;;;26.66;32.75;99149.47;4478265;32;35045;-79
2022/05/31 05:06:37;;;;;;;;;;;;;;;25.72;32.92;99150.72;4468559;32;34342;-85
2022/05/31 05:09:05;;;;;;;;;;;;;;;25.99;32.27;99145.00;4467706;32;34300;-81
2022/05/31 05:11:32;;;;;;;;;;;;;;;25.39;34.13;99153.22;4462784;32;33973;-81
2022/05/31 05:14:01;;;;;;;;;;;;;;;26.37;33.04;99158.12;4480904;32;34547;-83
2022/05/31 05:16:32;;;;;;;;;;;;;;;26.61;31.44;99156.84;4480154;32;32585;-81
2022/05/31 05:18:59;;;;;;;;;;;;;;;26.81;32.01;99158.41;4484134;32;34211;-79
2022/05/31 05:21:26;;;;;;;;;;;;;;;26.37;32.86;99156.31;4484066;32;35264;-81
2022/05/31 05:23:55;;;;;;;;;;;;;;;27.35;32.26;99166.16;4469332;32;34341;-82
2022/05/31 05:26:24;;;;;;;;;;;;;;;27.87;30.93;99157.88;4468679;32;34062;-81
2022/05/31 05:31:41;;;;;;;;;;;;;;;28.03;30.29;99161.34;4469265;32;34054;-82
2022/05/31 05:34:26;;;;;;;;;;;;;;;27.44;31.07;99178.09;4468509;32;34323;-81
2022/05/31 05:36:53;;;;;;;;;;;;;;;26.98;31.10;99165.50;4479107;32;33384;-84
2022/05/31 05:39:21;;;;;;;;;;;;;;;26.60;32.86;99173.75;4481409;32;33620;-84
2022/05/31 05:41:50;;;;;;;;;;;;;;;26.84;32.06;99168.06;4474498;32;33055;-81
2022/05/31 05:44:21;;;;;;;;;;;;;;;26.84;30.96;99166.25;4468770;32;33503;-84
2022/05/31 05:46:49;;;;;;;;;;;;;;;27.21;31.99;99171.41;4472212;32;34116;-81
2022/05/31 05:49:16;;;;;;;;;;;;;;;27.27;31.91;99171.91;4477066;32;34203;-81
2022/05/31 05:51:44;;;;;;;;;;;;;;;27.16;32.08;99164.53;4468967;32;34407;-82
2022/05/31 05:54:20;;;;;;;;;;;;;;;25.85;34.59;99171.38;4472090;32;32785;-81
2022/05/31 05:56:57;;;;;;;;;;;;;;;26.68;33.10;99174.19;4482572;32;33138;-81
2022/05/31 05:59:30;;;;;;;;;;;;;;;26.29;33.04;99173.56;4481666;32;33872;-81
2022/05/31 06:02:08;;;;;;;;;;;;;;;27.26;31.58;99172.00;4468794;32;34299;-82
2022/05/31 06:04:57;;;;;;;;;;;;;;;26.12;32.54;99171.78;4469043;32;35390;-80
2022/05/31 06:07:27;;;;;;;;;;;;;;;24.12;36.38;99181.88;4472174;32;34152;-81
2022/05/31 06:10:00;;;;;;;;;;;;;;;25.01;35.92;99184.19;4463303;32;34989;-79
2022/05/31 06:12:29;;;;;;;;;;;;;;;24.63;36.43;99184.13;4462490;32;34592;-78
2022/05/31 06:15:02;;;;;;;;;;;;;;;24.57;35.66;99180.88;4454332;32;35265;-82
2022/05/31 06:17:31;;;;;;;;;;;;;;;24.20;36.56;99188.56;4474484;32;34507;-82
2022/05/31 06:20:01;;;;;;;;;;;;;;;24.42;35.45;99193.00;4457131;32;34238;-81
2022/05/31 06:22:28;;;;;;;;;;;;;;;23.92;37.33;99188.88;4467949;32;34422;-82
2022/05/31 06:24:58;;;;;;;;;;;;;;;23.95;37.59;99198.50;4474241;32;33834;-80
2022/05/31 06:27:28;;;;;;;;;;;;;;;23.87;37.06;99187.38;4470037;32;33374;-81
2022/05/31 06:29:56;;;;;;;;;;;;;;;25.51;33.95;99188.94;4479993;32;33580;-81
2022/05/31 06:32:23;;;;;;;;;;;;;;;26.13;33.01;99197.41;4483704;31;34309;-81
2022/05/31 06:34:56;;;;;;;;;;;;;;;26.19;32.58;99187.34;4482210;32;33657;-81
2022/05/31 06:37:24;;;;;;;;;;;;;;;26.63;32.30;99202.84;4456241;32;33915;-81
2022/05/31 06:39:51;;;;;;;;;;;;;;;26.24;32.45;99204.84;4466894;32;34352;-81
2022/05/31 06:42:19;;;;;;;;;;;;;;;27.79;31.32;99213.41;4476643;32;34157;-82
2022/05/31 06:44:49;;;;;;;;;;;;;;;27.27;30.52;99205.66;4483537;32;33956;-82
2022/05/31 06:47:18;;;;;;;;;;;;;;;27.35;30.98;99214.06;4469129;32;33233;-80
2022/05/31 06:49:49;;;;;;;;;;;;;;;26.35;31.35;99207.81;4469616;32;32513;-81
2022/05/31 06:58:03;;;;;;;;;;;;;;;26.09;32.32;99201.16;4455925;32;33268;-81
2022/05/31 07:00:31;;;;;;;;;;;;;;;26.06;33.62;99196.84;4472125;32;34223;-81
2022/05/31 07:02:59;;;;;;;;;;;;;;;26.42;32.06;99195.94;4467565;32;34211;-80
2022/05/31 07:05:26;;;;;;;;;;;;;;;27.08;31.04;99197.78;4480379;32;34482;-81
2022/05/31 07:07:54;;;;;;;;;;;;;;;27.04;32.11;99197.09;4482061;32;34334;-81
2022/05/31 07:10:28;;;;;;;;;;;;;;;27.76;30.25;99189.59;4475563;32;34373;-82
2022/05/31 07:12:56;;;;;;;;;;;;;;;27.40;30.63;99193.37;4475018;32;33202;-81
2022/05/31 07:15:28;;;;;;;;;;;;;;;27.29;30.59;99198.44;4479619;32;37443;-81
2022/05/31 07:17:57;;;;;;;;;;;;;;;25.93;32.75;99199.28;4471933;32;34557;-79
2022/05/31 07:20:25;;;;;;;;;;;;;;;25.43;32.99;99199.06;4468880;32;33985;-82
2022/05/31 07:22:53;;;;;;;;;;;;;;;25.59;32.83;99202.69;4476878;32;34943;-81
2022/05/31 07:25:21;;;;;;;;;;;;;;;25.46;33.50;99204.22;4476213;32;35112;-81
2022/05/31 07:27:48;;;;;;;;;;;;;;;25.68;33.63;99202.25;4467767;32;33786;-85
2022/05/31 07:30:16;;;;;;;;;;;;;;;26.63;32.34;99202.84;4479995;32;34077;-81
2022/05/31 07:32:48;;;;;;;;;;;;;;;26.33;31.92;99199.03;4457769;32;34148;-84
2022/05/31 07:35:37;;;;;;;;;;;;;;;24.35;34.39;99213.56;4479960;32;33525;-79
2022/05/31 07:38:09;;;;;;;;;;;;;;;25.52;33.31;99211.00;4471316;32;34302;-81
2022/05/31 07:40:38;;;;;;;;;;;;;;;25.44;33.52;99211.38;4473372;32;34038;-80
2022/05/31 07:43:05;;;;;;;;;;;;;;;25.15;33.18;99208.28;4476689;32;35388;-80
2022/05/31 07:45:33;;;;;;;;;;;;;;;25.75;33.14;99209.91;4479703;32;35417;-80
2022/05/31 07:48:01;;;;;;;;;;;;;;;23.88;35.77;99221.72;4474985;32;34658;-81
2022/05/31 07:50:29;;;;;;;;;;;;;;;24.02;36.71;99213.22;4481083;32;34238;-79
2022/05/31 07:52:59;;;;;;;;;;;;;;;25.13;33.75;99210.16;4479388;32;35027;-81
2022/05/31 07:55:30;;;;;;;;;;;;;;;25.44;33.35;99219.34;4476178;32;33257;-80
2022/05/31 08:00:50;;;;;;;;;;;;;;;25.14;33.04;99222.50;4470716;32;33144;-82
2022/05/31 08:03:18;;;;;;;;;;;;;;;25.58;33.24;99232.81;4469421;32;33820;-80
2022/05/31 08:05:45;;;;;;;;;;;;;;;25.35;33.56;99233.06;4472506;32;34154;-84
2022/05/31 08:08:12;;;;;;;;;;;;;;;26.10;31.57;99219.69;4467311;32;33418;-81
2022/05/31 08:11:04;;;;;;;;;;;;;;;26.14;32.75;99215.94;4467156;32;35313;-81
2022/05/31 08:13:31;;;;;;;;;;;;;;;26.91;31.05;99228.81;4466755;32;34144;-81
2022/05/31 08:15:58;;;;;;;;;;;;;;;27.00;30.72;99223.94;4466756;32;34577;-82
2022/05/31 08:18:26;;;;;;;;;;;;;;;25.04;33.75;99230.91;4467028;32;33416;-81
2022/05/31 08:20:58;;;;;;;;;;;;;;;26.44;32.54;99221.50;4452910;32;34423;-81
2022/05/31 08:23:25;;;;;;;;;;;;;;;24.08;35.67;99238.56;4453065;32;34454;-85
2022/05/31 08:25:54;;;;;;;;;;;;;;;24.84;35.07;99226.50;4466727;32;35358;-81
2022/05/31 08:28:21;;;;;;;;;;;;;;;24.62;36.41;99235.38;4466908;32;34420;-81
2022/05/31 08:30:49;;;;;;;;;;;;;;;25.55;34.65;99229.47;4466728;32;34349;-81
2022/05/31 08:33:16;;;;;;;;;;;;;;;25.42;34.77;99245.09;4466567;32;34360;-82
2022/05/31 08:35:43;;;;;;;;;;;;;;;25.07;36.24;99239.56;4452545;32;34269;-84
2022/05/31 08:38:29;;;;;;;;;;;;;;;25.08;34.38;99237.78;4468639;32;33472;-84
2022/05/31 08:41:00;;;;;;;;;;;;;;;24.80;35.09;99238.16;4468883;32;33954;-82
2022/05/31 08:43:37;;;;;;;;;;;;;;;25.75;34.33;99241.78;4468850;32;34319;-82
2022/05/31 08:46:06;;;;;;;;;;;;;;;25.33;34.42;99240.22;4454374;32;34296;-82
2022/05/31 08:48:35;;;;;;;;;;;;;;;25.13;35.32;99235.84;4468849;32;33028;-83
2022/05/31 08:56:56;;;;;;;;;;;;;;;25.65;33.76;99239.56;4457033;32;33973;-82
2022/05/31 08:59:31;;;;;;;;;;;;;;;25.98;33.88;99236.22;4455073;32;34280;-81
2022/05/31 09:02:00;;;;;;;;;;;;;;;25.51;34.54;99239.34;4454313;32;33791;-82
2022/05/31 09:04:32;;;;;;;;;;;;;;;25.58;33.95;99234.62;4468289;32;34385;-82
2022/05/31 09:07:11;;;;;;;;;;;;;;;25.62;33.96;99242.38;4468544;32;34904;-85
2022/05/31 09:10:06;;;;;;;;;;;;;;;25.81;33.92;99238.87;4456245;32;34170;-84
2022/05/31 09:12:48;;;;;;;;;;;;;;;25.67;34.89;99227.06;4468795;32;35153;-81
2022/05/31 09:15:20;;;;;;;;;;;;;;;26.21;33.55;99224.44;4454294;32;35239;-82
2022/05/31 09:17:51;;;;;;;;;;;;;;;26.93;32.93;99223.41;4454363;32;34638;-81
2022/05/31 09:20:30;;;;;;;;;;;;;;;27.47;31.79;99225.88;4468715;32;33346;-85
2022/05/31 09:22:57;;;;;;;;;;;;;;;27.59;31.62;99217.19;4454386;32;33866;-83
2022/05/31 09:25:25;;;;;;;;;;;;;;;26.99;32.39;99220.44;4454540;32;35443;-86
2022/05/31 09:27:53;;;;;;;;;;;;;;;27.34;32.21;99223.00;4468110;32;34496;-82
2022/05/31 09:30:36;;;;;;;;;;;;;;;26.96;32.85;99217.94;4468622;32;33612;-81
2022/05/31 09:33:15;;;;;;;;;;;;;;;27.63;31.92;99224.91;4454180;32;33776;-82
2022/05/31 09:35:50;;;;;;;;;;;;;;;27.13;32.48;99223.25;4454821;32;34501;-81
2022/05/31 09:38:24;;;;;;;;;;;;;;;27.28;32.14;99224.22;4454281;32;34297;-81
2022/05/31 09:41:05;;;;;;;;;;;;;;;27.69;31.96;99220.16;4468471;32;33844;-81
2022/05/31 09:43:36;;;;;;;;;;;;;;;27.73;31.79;99211.06;4467951;32;34405;-82
2022/05/31 09:46:10;;;;;;;;;;;;;;;25.94;33.74;99218.72;4468423;32;34681;-82
2022/05/31 09:48:43;;;;;;;;;;;;;;;26.54;32.83;99216.59;4467910;32;34967;-81
2022/05/31 09:51:16;;;;;;;;;;;;;;;27.07;33.38;99222.69;4454300;32;33557;-81
2022/05/31 09:59:22;;;;;;;;;;;;;;;25.91;34.51;99222.41;4456705;32;35248;-86
2022/05/31 10:02:02;;;;;;;;;;;;;;;25.12;36.25;99223.50;4455072;32;33061;-81
2022/05/31 10:04:31;;;;;;;;;;;;;;;25.50;35.71;99218.22;4454314;32;34958;-85
2022/05/31 10:07:00;;;;;;;;;;;;;;;25.47;35.39;99217.41;4468254;32;33886;-81
2022/05/31 10:09:34;;;;;;;;;;;;;;;24.50;36.57;99209.41;4468172;32;35245;-85
2022/05/31 10:12:11;;;;;;;;;;;;;;;26.33;34.37;99199.03;4467811;32;33728;-81
2022/05/31 10:14:39;;;;;;;;;;;;;;;25.03;36.42;99211.47;4468049;32;35081;-82
2022/05/31 10:17:25;;;;;;;;;;;;;;;25.37;34.79;99215.25;4453860;32;34960;-82
2022/05/31 10:20:31;;;;;;;;;;;;;;;26.48;34.15;99202.75;4468061;32;34459;-81
2022/05/31 10:23:00;;;;;;;;;;;;;;;25.85;34.72;99197.94;4434756;32;34030;-82
2022/05/31 10:25:49;;;;;;;;;;;;;;;25.11;35.17;99198.75;4434691;32;35106;-81
2022/05/31 10:28:30;;;;;;;;;;;;;;;25.38;35.63;99203.69;4456416;32;34089;-81
2022/05/31 10:31:03;;;;;;;;;;;;;;;25.86;35.00;99197.00;4468346;32;34220;-82
2022/05/31 10:33:32;;;;;;;;;;;;;;;25.67;35.14;99195.19;4454075;32;34271;-85
2022/05/31 10:36:05;;;;;;;;;;;;;;;26.10;35.79;99198.44;4467954;32;34081;-85
2022/05/31 10:38:33;;;;;;;;;;;;;;;26.44;33.71;99204.66;4454007;32;34382;-83
2022/05/31 10:41:05;;;;;;;;;;;;;;;26.59;33.18;99201.25;4453904;32;34154;-84
2022/05/31 10:43:35;;;;;;;;;;;;;;;24.85;36.70;99197.28;4454017;32;33857;-82
2022/05/31 10:46:04;;;;;;;;;;;;;;;26.45;34.31;99190.47;4468139;32;33996;-82
2022/05/31 10:48:32;;;;;;;;;;;;;;;26.13;35.23;99190.28;4454018;32;34416;-82
2022/05/31 10:50:59;;;;;;;;;;;;;;;26.95;33.86;99197.59;4453768;32;34642;-81
2022/05/31 10:53:41;;;;;;;;;;;;;;;27.04;33.68;99199.75;4468037;32;34094;-81
2022/05/31 10:56:10;;;;;;;;;;;;;;;27.28;32.60;99194.06;4453653;32;34876;-82
2022/05/31 10:58:38;;;;;;;;;;;;;;;26.72;33.93;99193.50;4453540;32;35809;-81
2022/05/31 11:01:14;;;;;;;;;;;;;;;27.38;32.97;99196.13;4468046;32;34578;-82
2022/05/31 11:03:45;;;;;;;;;;;;;;;27.78;31.61;99196.56;4467516;32;33497;-81
2022/05/31 11:06:21;;;;;;;;;;;;;;;27.34;32.19;99199.03;4467481;32;34845;-83
2022/05/31 11:11:56;;;;;;;;;;;;;;;27.06;32.77;99189.88;4467941;32;35254;-81
2022/05/31 11:14:38;;;;;;;;;;;;;;;26.22;33.92;99188.13;4467737;32;33688;-84
2022/05/31 11:17:20;;;;;;;;;;;;;;;27.01;32.03;99189.28;4453591;32;34555;-83
2022/05/31 11:19:51;;;;;;;;;;;;;;;25.19;35.77;99193.09;4467593;32;33916;-81
2022/05/31 11:22:21;;;;;;;;;;;;;;;25.89;34.48;99183.56;4467779;32;34591;-82
2022/05/31 11:24:48;;;;;;;;;;;;;;;26.49;33.42;99184.06;4453444;32;34612;-82
2022/05/31 11:27:34;;;;;;;;;;;;;;;26.07;33.49;99176.50;4467507;32;35032;-81
2022/05/31 11:30:02;;;;;;;;;;;;;;;24.93;35.34;99187.19;4453446;32;34922;-81
2022/05/31 11:32:36;;;;;;;;;;;;;;;25.79;33.63;99176.97;4467556;32;34672;-82
2022/05/31 11:35:16;;;;;;;;;;;;;;;24.92;35.64;99184.56;4467793;32;34318;-83
2022/05/31 11:37:47;;;;;;;;;;;;;;;24.89;35.55;99179.41;4453835;32;34112;-86
2022/05/31 11:40:34;;;;;;;;;;;;;;;25.19;34.74;99174.50;4453310;32;34531;-82
2022/05/31 11:43:02;;;;;;;;;;;;;;;26.25;33.42;99169.34;4467679;32;34494;-82
2022/05/31 11:45:48;;;;;;;;;;;;;;;25.68;33.56;99167.75;4467443;32;34254;-84
2022/05/31 11:48:34;;;;;;;;;;;;;;;26.26;33.13;99161.31;4467393;32;34657;-84
2022/05/31 11:51:09;;;;;;;;;;;;;;;26.40;33.31;99168.56;4467321;32;33463;-81
2022/05/31 11:53:48;;;;;;;;;;;;;;;26.24;33.43;99162.31;4453218;32;34572;-83
2022/05/31 11:56:28;;;;;;;;;;;;;;;25.34;35.07;99164.97;4467487;32;33373;-81
2022/05/31 11:59:13;;;;;;;;;;;;;;;26.20;33.94;99154.50;4467180;32;33918;-80
2022/05/31 12:01:46;;;;;;;;;;;;;;;27.11;31.84;99161.25;4451933;32;35252;-81
2022/05/31 12:04:19;;;;;;;;;;;;;;;27.57;31.06;99141.81;4467259;32;34361;-80
2022/05/31 12:06:49;;;;;;;;;;;;;;;26.38;32.72;99157.16;4467019;32;34307;-82
2022/05/31 12:09:30;;;;;;;;;;;;;;;26.91;32.81;99156.13;4452810;32;34109;-81
2022/05/31 12:12:00;;;;;;;;;;;;;;;27.18;32.40;99148.47;4469652;32;34301;-83
2022/05/31 12:14:27;;;;;;;;;;;;;;;27.38;31.48;99142.00;4457955;32;34403;-81
2022/05/31 12:16:54;;;;;;;;;;;;;;;27.30;31.14;99128.28;4472248;32;34425;-85
2022/05/31 12:19:40;;;;;;;;;;;;;;;28.13;30.16;99129.69;4458028;32;35064;-81
2022/05/31 12:22:12;;;;;;;;;;;;;;;28.20;29.34;99125.72;4471970;32;34441;-85
2022/05/31 12:24:41;;;;;;;;;;;;;;;28.30;29.05;99131.34;4458496;32;34559;-82
2022/05/31 12:27:10;;;;;;;;;;;;;;;27.11;29.89;99124.00;4458183;32;33305;-81
2022/05/31 12:29:41;;;;;;;;;;;;;;;28.10;29.79;99117.41;4457996;32;35044;-82
2022/05/31 12:32:29;;;;;;;;;;;;;;;28.14;29.49;99123.41;4472114;32;34112;-82
2022/05/31 12:35:02;;;;;;;;;;;;;;;25.97;33.04;99128.25;4457877;32;35100;-81
2022/05/31 12:37:48;;;;;;;;;;;;;;;27.10;32.55;99124.91;4471612;32;34324;-87
2022/05/31 12:40:24;;;;;;;;;;;;;;;27.35;31.70;99108.47;4471740;32;34337;-82
2022/05/31 12:42:51;;;;;;;;;;;;;;;27.37;32.37;99108.38;4457890;32;34285;-84
2022/05/31 12:45:28;;;;;;;;;;;;;;;26.92;32.33;99107.31;4471900;32;34773;-81
2022/05/31 12:47:56;;;;;;;;;;;;;;;27.64;31.26;99108.56;4471592;32;32812;-81
2022/05/31 12:50:42;;;;;;;;;;;;;;;28.26;31.48;99098.69;4471672;32;35038;-81
2022/05/31 12:55:36;;;;;;;;;;;;;;;28.12;29.97;99094.19;4471579;32;35411;-82
2022/05/31 13:00:51;;;;;;;;;;;;;;;26.41;32.58;99106.50;4471665;32;33936;-82
2022/05/31 13:03:34;;;;;;;;;;;;;;;26.92;31.39;99104.63;4471439;32;34423;-86
2022/05/31 13:06:07;;;;;;;;;;;;;;;26.05;33.23;99109.28;4471214;32;34122;-82
2022/05/31 13:08:54;;;;;;;;;;;;;;;26.86;31.69;99103.19;4472151;32;33565;-82
2022/05/31 13:19:45;;;;;;;;;;;;;;;27.11;31.31;99078.75;4471105;32;34219;-81
2022/05/31 13:22:13;;;;;;;;;;;;;;;27.80;30.54;99073.94;4462951;32;34041;-82
2022/05/31 13:24:47;;;;;;;;;;;;;;;27.87;29.84;99073.47;4483375;32;35330;-84
2022/05/31 13:27:21;;;;;;;;;;;;;;;28.25;30.00;99070.28;4468364;32;34179;-82
2022/05/31 13:30:01;;;;;;;;;;;;;;;28.71;28.48;99063.94;4483651;32;33915;-81
2022/05/31 13:32:34;;;;;;;;;;;;;;;28.36;28.78;99062.50;4483811;32;34374;-81
2022/05/31 13:35:06;;;;;;;;;;;;;;;27.75;30.56;99060.88;4482872;32;34813;-81
2022/05/31 13:37:34;;;;;;;;;;;;;;;28.81;28.71;99051.72;4467148;32;34052;-83
2022/05/31 13:40:03;;;;;;;;;;;;;;;29.33;29.13;99056.37;4467447;32;34143;-83
2022/05/31 13:42:39;;;;;;;;;;;;;;;29.28;29.29;99048.69;4462775;32;34497;-82
2022/05/31 13:45:09;;;;;;;;;;;;;;;28.94;29.12;99060.66;4468243;32;34231;-81
2022/05/31 13:47:37;;;;;;;;;;;;;;;29.20;27.98;99058.13;4480260;32;35177;-78